sensor_id;sensor_type;location;lat;lon;timestamp;P1;durP1;ratioP1;P2;durP2;ratioP2
47309;SDS011;33046;52.270;6.832;2022-09-30T00:00:22;6.97;;;6.25;;
47309;SDS011;33046;52.270;6.832;2022-09-30T00:02:30;6.22;;;5.63;;
47309;SDS011;33046;52.270;6.832;2022-09-30T00:04:37;6.65;;;6.05;;
47309;SDS011;33046;52.270;6.832;2022-09-30T00:06:44;6.30;;;5.53;;
47309;SDS011;33046;52.270;6.832;2022-09-30T00:08:51;6.45;;;5.63;;
47309;SDS011;33046;52.270;6.832;2022-09-30T00:10:58;7.00;;;6.15;;
47309;SDS011;33046;52.270;6.832;2022-09-30T00:13:06;5.80;;;5.25;;
47309;SDS011;33046;52.270;6.832;2022-09-30T00:15:13;6.13;;;5.53;;
47309;SDS011;33046;52.270;6.832;2022-09-30T00:17:19;6.35;;;5.75;;
47309;SDS011;33046;52.270;6.832;2022-09-30T00:19:27;6.68;;;5.57;;
47309;SDS011;33046;52.270;6.832;2022-09-30T00:21:34;6.60;;;6.00;;
47309;SDS011;33046;52.270;6.832;2022-09-30T00:23:41;6.95;;;6.28;;
47309;SDS011;33046;52.270;6.832;2022-09-30T00:25:50;8.02;;;6.18;;
47309;SDS011;33046;52.270;6.832;2022-09-30T00:28:02;7.17;;;6.47;;
47309;SDS011;33046;52.270;6.832;2022-09-30T00:30:09;6.72;;;6.03;;
47309;SDS011;33046;52.270;6.832;2022-09-30T00:32:16;6.50;;;5.90;;
47309;SDS011;33046;52.270;6.832;2022-09-30T00:34:23;7.20;;;6.47;;
47309;SDS011;33046;52.270;6.832;2022-09-30T00:36:31;7.43;;;6.30;;
47309;SDS011;33046;52.270;6.832;2022-09-30T00:38:38;6.72;;;6.07;;
47309;SDS011;33046;52.270;6.832;2022-09-30T00:40:45;7.72;;;6.25;;
47309;SDS011;33046;52.270;6.832;2022-09-30T00:42:52;7.93;;;6.45;;
47309;SDS011;33046;52.270;6.832;2022-09-30T00:45:03;7.95;;;7.10;;
47309;SDS011;33046;52.270;6.832;2022-09-30T00:47:20;7.90;;;7.10;;
47309;SDS011;33046;52.270;6.832;2022-09-30T00:51:54;8.77;;;7.88;;
47309;SDS011;33046;52.270;6.832;2022-09-30T00:54:03;8.23;;;6.53;;
47309;SDS011;33046;52.270;6.832;2022-09-30T00:56:16;7.28;;;6.55;;
47309;SDS011;33046;52.270;6.832;2022-09-30T00:58:26;7.97;;;7.25;;
47309;SDS011;33046;52.270;6.832;2022-09-30T01:00:35;8.95;;;7.93;;
47309;SDS011;33046;52.270;6.832;2022-09-30T01:02:42;7.60;;;6.72;;
47309;SDS011;33046;52.270;6.832;2022-09-30T01:04:51;15.07;;;7.40;;
47309;SDS011;33046;52.270;6.832;2022-09-30T01:06:59;7.75;;;7.07;;
47309;SDS011;33046;52.270;6.832;2022-09-30T01:09:08;8.05;;;6.80;;
47309;SDS011;33046;52.270;6.832;2022-09-30T01:11:15;10.35;;;8.43;;
47309;SDS011;33046;52.270;6.832;2022-09-30T01:13:23;7.95;;;7.25;;
47309;SDS011;33046;52.270;6.832;2022-09-30T01:15:36;8.85;;;7.85;;
47309;SDS011;33046;52.270;6.832;2022-09-30T01:17:56;8.38;;;7.53;;
47309;SDS011;33046;52.270;6.832;2022-09-30T01:20:19;8.73;;;7.85;;
47309;SDS011;33046;52.270;6.832;2022-09-30T01:22:41;8.35;;;7.55;;
47309;SDS011;33046;52.270;6.832;2022-09-30T01:25:02;9.23;;;8.38;;
47309;SDS011;33046;52.270;6.832;2022-09-30T01:27:42;8.13;;;7.32;;
47309;SDS011;33046;52.270;6.832;2022-09-30T01:30:05;11.40;;;7.85;;
47309;SDS011;33046;52.270;6.832;2022-09-30T01:32:18;7.70;;;7.00;;
47309;SDS011;33046;52.270;6.832;2022-09-30T01:34:39;8.43;;;7.68;;
47309;SDS011;33046;52.270;6.832;2022-09-30T01:36:59;8.38;;;6.75;;
47309;SDS011;33046;52.270;6.832;2022-09-30T01:39:17;8.30;;;7.43;;
47309;SDS011;33046;52.270;6.832;2022-09-30T01:41:34;8.43;;;7.35;;
47309;SDS011;33046;52.270;6.832;2022-09-30T01:43:46;7.03;;;6.32;;
47309;SDS011;33046;52.270;6.832;2022-09-30T01:45:59;7.53;;;5.37;;
47309;SDS011;33046;52.270;6.832;2022-09-30T01:48:14;5.60;;;5.10;;
47309;SDS011;33046;52.270;6.832;2022-09-30T01:50:26;5.20;;;4.28;;
47309;SDS011;33046;52.270;6.832;2022-09-30T01:52:43;5.57;;;5.07;;
47309;SDS011;33046;52.270;6.832;2022-09-30T01:54:58;8.68;;;6.78;;
47309;SDS011;33046;52.270;6.832;2022-09-30T01:57:10;7.60;;;6.13;;
47309;SDS011;33046;52.270;6.832;2022-09-30T01:59:23;6.55;;;5.95;;
47309;SDS011;33046;52.270;6.832;2022-09-30T02:01:38;7.40;;;6.65;;
47309;SDS011;33046;52.270;6.832;2022-09-30T02:03:51;7.82;;;7.18;;
47309;SDS011;33046;52.270;6.832;2022-09-30T02:06:02;7.68;;;6.97;;
47309;SDS011;33046;52.270;6.832;2022-09-30T02:08:14;7.60;;;6.85;;
47309;SDS011;33046;52.270;6.832;2022-09-30T02:10:24;9.55;;;8.50;;
47309;SDS011;33046;52.270;6.832;2022-09-30T02:12:34;8.40;;;7.60;;
47309;SDS011;33046;52.270;6.832;2022-09-30T02:14:47;8.20;;;7.40;;
47309;SDS011;33046;52.270;6.832;2022-09-30T02:16:58;7.72;;;7.03;;
47309;SDS011;33046;52.270;6.832;2022-09-30T02:19:12;8.48;;;7.70;;
47309;SDS011;33046;52.270;6.832;2022-09-30T02:21:25;8.98;;;8.18;;
47309;SDS011;33046;52.270;6.832;2022-09-30T02:23:37;9.25;;;8.27;;
47309;SDS011;33046;52.270;6.832;2022-09-30T02:25:47;9.73;;;8.75;;
47309;SDS011;33046;52.270;6.832;2022-09-30T02:27:58;9.48;;;8.55;;
47309;SDS011;33046;52.270;6.832;2022-09-30T02:30:08;9.25;;;8.45;;
47309;SDS011;33046;52.270;6.832;2022-09-30T02:32:19;8.82;;;8.02;;
47309;SDS011;33046;52.270;6.832;2022-09-30T02:34:31;8.80;;;8.00;;
47309;SDS011;33046;52.270;6.832;2022-09-30T02:36:42;10.57;;;8.50;;
47309;SDS011;33046;52.270;6.832;2022-09-30T02:38:54;9.68;;;8.88;;
47309;SDS011;33046;52.270;6.832;2022-09-30T02:41:07;10.30;;;9.30;;
47309;SDS011;33046;52.270;6.832;2022-09-30T02:43:16;9.25;;;8.43;;
47309;SDS011;33046;52.270;6.832;2022-09-30T02:45:24;9.57;;;8.40;;
47309;SDS011;33046;52.270;6.832;2022-09-30T02:47:35;9.35;;;8.35;;
47309;SDS011;33046;52.270;6.832;2022-09-30T02:49:56;8.73;;;7.93;;
47309;SDS011;33046;52.270;6.832;2022-09-30T02:52:09;8.23;;;7.10;;
47309;SDS011;33046;52.270;6.832;2022-09-30T02:54:28;9.30;;;8.40;;
47309;SDS011;33046;52.270;6.832;2022-09-30T02:56:40;9.15;;;8.00;;
47309;SDS011;33046;52.270;6.832;2022-09-30T02:58:56;9.88;;;8.88;;
47309;SDS011;33046;52.270;6.832;2022-09-30T03:01:03;9.00;;;8.18;;
47309;SDS011;33046;52.270;6.832;2022-09-30T03:03:11;9.15;;;8.20;;
47309;SDS011;33046;52.270;6.832;2022-09-30T03:05:23;10.40;;;8.35;;
47309;SDS011;33046;52.270;6.832;2022-09-30T03:07:30;9.75;;;8.75;;
47309;SDS011;33046;52.270;6.832;2022-09-30T03:09:38;9.88;;;8.90;;
47309;SDS011;33046;52.270;6.832;2022-09-30T03:11:45;9.45;;;8.60;;
47309;SDS011;33046;52.270;6.832;2022-09-30T03:16:47;10.13;;;9.18;;
47309;SDS011;33046;52.270;6.832;2022-09-30T03:19:12;10.52;;;9.45;;
47309;SDS011;33046;52.270;6.832;2022-09-30T03:21:36;10.50;;;9.52;;
47309;SDS011;33046;52.270;6.832;2022-09-30T03:23:59;9.65;;;8.13;;
47309;SDS011;33046;52.270;6.832;2022-09-30T03:26:29;11.07;;;9.25;;
47309;SDS011;33046;52.270;6.832;2022-09-30T03:28:48;9.63;;;8.65;;
47309;SDS011;33046;52.270;6.832;2022-09-30T03:31:02;9.80;;;8.80;;
47309;SDS011;33046;52.270;6.832;2022-09-30T03:33:14;10.25;;;9.18;;
47309;SDS011;33046;52.270;6.832;2022-09-30T03:35:28;9.40;;;8.60;;
47309;SDS011;33046;52.270;6.832;2022-09-30T03:37:44;10.73;;;9.63;;
47309;SDS011;33046;52.270;6.832;2022-09-30T03:39:58;10.50;;;9.50;;
47309;SDS011;33046;52.270;6.832;2022-09-30T03:42:12;10.02;;;9.02;;
47309;SDS011;33046;52.270;6.832;2022-09-30T03:44:28;11.30;;;9.38;;
47309;SDS011;33046;52.270;6.832;2022-09-30T03:46:42;10.27;;;9.32;;
47309;SDS011;33046;52.270;6.832;2022-09-30T03:48:52;10.43;;;9.43;;
47309;SDS011;33046;52.270;6.832;2022-09-30T03:51:01;9.82;;;8.93;;
47309;SDS011;33046;52.270;6.832;2022-09-30T03:53:11;10.80;;;9.70;;
47309;SDS011;33046;52.270;6.832;2022-09-30T03:55:18;11.15;;;9.80;;
47309;SDS011;33046;52.270;6.832;2022-09-30T03:57:27;10.43;;;9.32;;
47309;SDS011;33046;52.270;6.832;2022-09-30T03:59:35;9.80;;;8.95;;
47309;SDS011;33046;52.270;6.832;2022-09-30T04:01:42;10.70;;;9.60;;
47309;SDS011;33046;52.270;6.832;2022-09-30T04:03:48;11.27;;;10.18;;
47309;SDS011;33046;52.270;6.832;2022-09-30T04:05:56;11.95;;;10.70;;
47309;SDS011;33046;52.270;6.832;2022-09-30T04:08:02;11.13;;;9.98;;
47309;SDS011;33046;52.270;6.832;2022-09-30T04:10:11;10.63;;;9.52;;
47309;SDS011;33046;52.270;6.832;2022-09-30T04:12:17;11.00;;;9.85;;
47309;SDS011;33046;52.270;6.832;2022-09-30T04:14:24;10.38;;;9.38;;
47309;SDS011;33046;52.270;6.832;2022-09-30T04:16:31;11.68;;;10.57;;
47309;SDS011;33046;52.270;6.832;2022-09-30T04:18:38;10.88;;;9.98;;
47309;SDS011;33046;52.270;6.832;2022-09-30T04:20:45;10.57;;;9.68;;
47309;SDS011;33046;52.270;6.832;2022-09-30T04:22:51;11.93;;;10.77;;
47309;SDS011;33046;52.270;6.832;2022-09-30T04:24:58;11.75;;;10.55;;
47309;SDS011;33046;52.270;6.832;2022-09-30T04:27:06;11.30;;;10.30;;
47309;SDS011;33046;52.270;6.832;2022-09-30T04:29:13;11.88;;;10.27;;
47309;SDS011;33046;52.270;6.832;2022-09-30T04:31:20;10.88;;;9.80;;
47309;SDS011;33046;52.270;6.832;2022-09-30T04:33:27;11.70;;;10.52;;
47309;SDS011;33046;52.270;6.832;2022-09-30T04:35:35;13.23;;;10.48;;
47309;SDS011;33046;52.270;6.832;2022-09-30T04:37:42;11.75;;;9.85;;
47309;SDS011;33046;52.270;6.832;2022-09-30T04:39:49;10.05;;;9.10;;
47309;SDS011;33046;52.270;6.832;2022-09-30T04:41:56;22.73;;;11.55;;
47309;SDS011;33046;52.270;6.832;2022-09-30T04:44:04;11.90;;;9.60;;
47309;SDS011;33046;52.270;6.832;2022-09-30T04:46:11;11.65;;;10.30;;
47309;SDS011;33046;52.270;6.832;2022-09-30T04:48:18;11.45;;;10.23;;
47309;SDS011;33046;52.270;6.832;2022-09-30T04:50:25;11.10;;;10.10;;
47309;SDS011;33046;52.270;6.832;2022-09-30T04:52:31;10.93;;;9.85;;
47309;SDS011;33046;52.270;6.832;2022-09-30T04:54:38;10.35;;;9.45;;
47309;SDS011;33046;52.270;6.832;2022-09-30T04:56:45;10.02;;;9.13;;
47309;SDS011;33046;52.270;6.832;2022-09-30T04:58:52;9.90;;;9.00;;
47309;SDS011;33046;52.270;6.832;2022-09-30T05:01:00;12.10;;;10.93;;
47309;SDS011;33046;52.270;6.832;2022-09-30T05:03:08;10.65;;;9.60;;
47309;SDS011;33046;52.270;6.832;2022-09-30T05:05:15;11.02;;;9.77;;
47309;SDS011;33046;52.270;6.832;2022-09-30T05:07:21;10.60;;;9.48;;
47309;SDS011;33046;52.270;6.832;2022-09-30T05:09:28;10.60;;;9.38;;
47309;SDS011;33046;52.270;6.832;2022-09-30T05:11:35;10.65;;;9.68;;
47309;SDS011;33046;52.270;6.832;2022-09-30T05:13:42;10.82;;;9.73;;
47309;SDS011;33046;52.270;6.832;2022-09-30T05:15:49;11.07;;;10.13;;
47309;SDS011;33046;52.270;6.832;2022-09-30T05:17:57;10.40;;;9.48;;
47309;SDS011;33046;52.270;6.832;2022-09-30T05:20:04;10.63;;;9.48;;
47309;SDS011;33046;52.270;6.832;2022-09-30T05:22:12;9.90;;;9.05;;
47309;SDS011;33046;52.270;6.832;2022-09-30T05:24:19;13.57;;;8.95;;
47309;SDS011;33046;52.270;6.832;2022-09-30T05:26:25;10.23;;;9.23;;
47309;SDS011;33046;52.270;6.832;2022-09-30T05:28:33;10.63;;;9.43;;
47309;SDS011;33046;52.270;6.832;2022-09-30T05:30:40;10.52;;;9.52;;
47309;SDS011;33046;52.270;6.832;2022-09-30T05:32:47;13.23;;;10.85;;
47309;SDS011;33046;52.270;6.832;2022-09-30T05:34:55;10.63;;;9.73;;
47309;SDS011;33046;52.270;6.832;2022-09-30T05:37:01;9.98;;;9.07;;
47309;SDS011;33046;52.270;6.832;2022-09-30T05:39:08;11.50;;;10.32;;
47309;SDS011;33046;52.270;6.832;2022-09-30T05:41:16;10.90;;;9.90;;
47309;SDS011;33046;52.270;6.832;2022-09-30T05:43:22;11.27;;;9.48;;
47309;SDS011;33046;52.270;6.832;2022-09-30T05:45:29;12.32;;;10.52;;
47309;SDS011;33046;52.270;6.832;2022-09-30T05:47:36;11.00;;;9.90;;
47309;SDS011;33046;52.270;6.832;2022-09-30T05:49:43;10.82;;;9.82;;
47309;SDS011;33046;52.270;6.832;2022-09-30T05:51:52;11.02;;;10.02;;
47309;SDS011;33046;52.270;6.832;2022-09-30T05:53:58;12.02;;;10.95;;
47309;SDS011;33046;52.270;6.832;2022-09-30T05:56:05;11.73;;;10.50;;
47309;SDS011;33046;52.270;6.832;2022-09-30T05:58:13;10.98;;;9.77;;
47309;SDS011;33046;52.270;6.832;2022-09-30T06:00:20;11.73;;;10.65;;
47309;SDS011;33046;52.270;6.832;2022-09-30T06:02:27;11.23;;;10.25;;
47309;SDS011;33046;52.270;6.832;2022-09-30T06:04:34;11.27;;;10.27;;
47309;SDS011;33046;52.270;6.832;2022-09-30T06:06:40;10.93;;;9.85;;
47309;SDS011;33046;52.270;6.832;2022-09-30T06:08:48;11.98;;;10.77;;
47309;SDS011;33046;52.270;6.832;2022-09-30T06:10:55;12.15;;;10.63;;
47309;SDS011;33046;52.270;6.832;2022-09-30T06:13:02;11.82;;;10.60;;
47309;SDS011;33046;52.270;6.832;2022-09-30T06:15:09;12.95;;;11.68;;
47309;SDS011;33046;52.270;6.832;2022-09-30T06:17:16;12.20;;;10.88;;
47309;SDS011;33046;52.270;6.832;2022-09-30T06:19:24;13.68;;;12.30;;
47309;SDS011;33046;52.270;6.832;2022-09-30T06:21:31;12.63;;;11.32;;
47309;SDS011;33046;52.270;6.832;2022-09-30T06:23:38;13.63;;;11.95;;
47309;SDS011;33046;52.270;6.832;2022-09-30T06:25:48;12.63;;;11.40;;
47309;SDS011;33046;52.270;6.832;2022-09-30T06:27:55;13.35;;;11.95;;
47309;SDS011;33046;52.270;6.832;2022-09-30T06:30:02;15.43;;;11.77;;
47309;SDS011;33046;52.270;6.832;2022-09-30T06:32:10;13.27;;;12.05;;
47309;SDS011;33046;52.270;6.832;2022-09-30T06:34:16;14.07;;;12.48;;
47309;SDS011;33046;52.270;6.832;2022-09-30T06:36:24;14.00;;;12.55;;
47309;SDS011;33046;52.270;6.832;2022-09-30T06:38:31;14.02;;;12.73;;
47309;SDS011;33046;52.270;6.832;2022-09-30T06:40:39;14.18;;;12.85;;
47309;SDS011;33046;52.270;6.832;2022-09-30T06:42:47;14.52;;;12.95;;
47309;SDS011;33046;52.270;6.832;2022-09-30T06:44:54;13.93;;;12.63;;
47309;SDS011;33046;52.270;6.832;2022-09-30T06:47:01;15.48;;;13.95;;
47309;SDS011;33046;52.270;6.832;2022-09-30T06:49:08;15.02;;;13.52;;
47309;SDS011;33046;52.270;6.832;2022-09-30T06:51:18;14.38;;;12.88;;
47309;SDS011;33046;52.270;6.832;2022-09-30T06:53:25;17.75;;;14.02;;
47309;SDS011;33046;52.270;6.832;2022-09-30T06:55:32;14.60;;;13.20;;
47309;SDS011;33046;52.270;6.832;2022-09-30T06:57:40;15.70;;;14.10;;
47309;SDS011;33046;52.270;6.832;2022-09-30T06:59:48;16.45;;;14.85;;
47309;SDS011;33046;52.270;6.832;2022-09-30T07:01:55;16.85;;;15.13;;
47309;SDS011;33046;52.270;6.832;2022-09-30T07:04:02;16.13;;;14.68;;
47309;SDS011;33046;52.270;6.832;2022-09-30T07:06:10;19.30;;;16.67;;
47309;SDS011;33046;52.270;6.832;2022-09-30T07:08:18;16.10;;;14.50;;
47309;SDS011;33046;52.270;6.832;2022-09-30T07:10:25;19.17;;;15.20;;
47309;SDS011;33046;52.270;6.832;2022-09-30T07:12:32;18.33;;;16.42;;
47309;SDS011;33046;52.270;6.832;2022-09-30T07:14:38;17.48;;;15.68;;
47309;SDS011;33046;52.270;6.832;2022-09-30T07:16:46;17.55;;;15.75;;
47309;SDS011;33046;52.270;6.832;2022-09-30T07:18:53;18.20;;;16.40;;
47309;SDS011;33046;52.270;6.832;2022-09-30T07:21:00;17.73;;;16.08;;
47309;SDS011;33046;52.270;6.832;2022-09-30T07:23:07;17.52;;;15.93;;
47309;SDS011;33046;52.270;6.832;2022-09-30T07:25:13;19.67;;;17.77;;
47309;SDS011;33046;52.270;6.832;2022-09-30T07:27:20;20.63;;;17.70;;
47309;SDS011;33046;52.270;6.832;2022-09-30T07:29:27;18.42;;;16.30;;
47309;SDS011;33046;52.270;6.832;2022-09-30T07:31:38;18.17;;;16.27;;
47309;SDS011;33046;52.270;6.832;2022-09-30T07:33:47;22.42;;;17.75;;
47309;SDS011;33046;52.270;6.832;2022-09-30T07:35:55;19.08;;;17.13;;
47309;SDS011;33046;52.270;6.832;2022-09-30T07:38:03;21.73;;;17.45;;
47309;SDS011;33046;52.270;6.832;2022-09-30T07:40:10;21.25;;;19.23;;
47309;SDS011;33046;52.270;6.832;2022-09-30T07:42:17;22.98;;;17.58;;
47309;SDS011;33046;52.270;6.832;2022-09-30T07:44:27;19.30;;;17.45;;
47309;SDS011;33046;52.270;6.832;2022-09-30T07:46:34;21.10;;;17.80;;
47309;SDS011;33046;52.270;6.832;2022-09-30T07:48:42;19.58;;;17.77;;
47309;SDS011;33046;52.270;6.832;2022-09-30T07:50:53;20.17;;;18.13;;
47309;SDS011;33046;52.270;6.832;2022-09-30T07:53:00;24.40;;;19.77;;
47309;SDS011;33046;52.270;6.832;2022-09-30T07:55:07;24.15;;;19.95;;
47309;SDS011;33046;52.270;6.832;2022-09-30T07:57:13;21.08;;;19.08;;
47309;SDS011;33046;52.270;6.832;2022-09-30T07:59:20;19.92;;;18.02;;
47309;SDS011;33046;52.270;6.832;2022-09-30T08:01:28;20.92;;;18.73;;
47309;SDS011;33046;52.270;6.832;2022-09-30T08:03:36;19.52;;;17.52;;
47309;SDS011;33046;52.270;6.832;2022-09-30T08:05:44;20.20;;;18.00;;
47309;SDS011;33046;52.270;6.832;2022-09-30T08:07:52;20.67;;;18.23;;
47309;SDS011;33046;52.270;6.832;2022-09-30T08:09:59;21.73;;;19.35;;
47309;SDS011;33046;52.270;6.832;2022-09-30T08:12:05;21.92;;;19.08;;
47309;SDS011;33046;52.270;6.832;2022-09-30T08:14:13;20.45;;;18.35;;
47309;SDS011;33046;52.270;6.832;2022-09-30T08:16:21;26.08;;;20.48;;
47309;SDS011;33046;52.270;6.832;2022-09-30T08:18:29;21.85;;;19.65;;
47309;SDS011;33046;52.270;6.832;2022-09-30T08:20:36;21.95;;;19.52;;
47309;SDS011;33046;52.270;6.832;2022-09-30T08:22:43;21.08;;;19.05;;
47309;SDS011;33046;52.270;6.832;2022-09-30T08:24:51;21.17;;;19.13;;
47309;SDS011;33046;52.270;6.832;2022-09-30T08:26:58;21.95;;;18.88;;
47309;SDS011;33046;52.270;6.832;2022-09-30T08:29:05;21.88;;;19.42;;
47309;SDS011;33046;52.270;6.832;2022-09-30T08:31:13;21.23;;;19.05;;
47309;SDS011;33046;52.270;6.832;2022-09-30T08:33:21;20.67;;;18.63;;
47309;SDS011;33046;52.270;6.832;2022-09-30T08:35:27;21.00;;;18.80;;
47309;SDS011;33046;52.270;6.832;2022-09-30T08:37:34;19.85;;;17.90;;
47309;SDS011;33046;52.270;6.832;2022-09-30T08:39:41;19.73;;;16.38;;
47309;SDS011;33046;52.270;6.832;2022-09-30T08:41:52;18.55;;;16.75;;
47309;SDS011;33046;52.270;6.832;2022-09-30T08:44:18;20.33;;;18.33;;
47309;SDS011;33046;52.270;6.832;2022-09-30T08:46:38;18.80;;;17.00;;
47309;SDS011;33046;52.270;6.832;2022-09-30T08:48:51;17.98;;;15.85;;
47309;SDS011;33046;52.270;6.832;2022-09-30T08:51:06;18.63;;;16.63;;
47309;SDS011;33046;52.270;6.832;2022-09-30T08:53:22;19.83;;;17.20;;
47309;SDS011;33046;52.270;6.832;2022-09-30T08:55:34;18.02;;;16.13;;
47309;SDS011;33046;52.270;6.832;2022-09-30T08:57:46;21.40;;;17.52;;
47309;SDS011;33046;52.270;6.832;2022-09-30T08:59:54;17.08;;;15.27;;
47309;SDS011;33046;52.270;6.832;2022-09-30T09:02:10;18.52;;;16.60;;
47309;SDS011;33046;52.270;6.832;2022-09-30T09:04:22;18.58;;;16.27;;
47309;SDS011;33046;52.270;6.832;2022-09-30T09:06:30;17.98;;;16.10;;
47309;SDS011;33046;52.270;6.832;2022-09-30T09:08:47;19.08;;;15.77;;
47309;SDS011;33046;52.270;6.832;2022-09-30T09:11:05;19.10;;;15.82;;
47309;SDS011;33046;52.270;6.832;2022-09-30T09:13:23;19.60;;;16.48;;
47309;SDS011;33046;52.270;6.832;2022-09-30T09:17:57;17.05;;;15.05;;
47309;SDS011;33046;52.270;6.832;2022-09-30T09:20:30;17.13;;;15.35;;
47309;SDS011;33046;52.270;6.832;2022-09-30T09:22:39;16.83;;;14.85;;
47309;SDS011;33046;52.270;6.832;2022-09-30T09:24:48;16.70;;;14.15;;
47309;SDS011;33046;52.270;6.832;2022-09-30T09:26:57;16.35;;;14.65;;
47309;SDS011;33046;52.270;6.832;2022-09-30T09:29:07;18.77;;;15.57;;
47309;SDS011;33046;52.270;6.832;2022-09-30T09:31:25;15.10;;;13.55;;
47309;SDS011;33046;52.270;6.832;2022-09-30T09:33:34;15.75;;;14.13;;
47309;SDS011;33046;52.270;6.832;2022-09-30T09:35:44;15.57;;;13.88;;
47309;SDS011;33046;52.270;6.832;2022-09-30T09:37:59;15.90;;;14.18;;
47309;SDS011;33046;52.270;6.832;2022-09-30T09:40:13;17.73;;;15.95;;
47309;SDS011;33046;52.270;6.832;2022-09-30T09:44:58;16.90;;;15.27;;
47309;SDS011;33046;52.270;6.832;2022-09-30T09:47:07;16.73;;;14.82;;
47309;SDS011;33046;52.270;6.832;2022-09-30T09:49:25;20.20;;;17.05;;
47309;SDS011;33046;52.270;6.832;2022-09-30T09:51:38;17.38;;;15.55;;
47309;SDS011;33046;52.270;6.832;2022-09-30T09:53:48;16.80;;;15.18;;
47309;SDS011;33046;52.270;6.832;2022-09-30T09:55:56;15.63;;;14.02;;
47309;SDS011;33046;52.270;6.832;2022-09-30T09:58:05;15.88;;;14.27;;
47309;SDS011;33046;52.270;6.832;2022-09-30T10:00:22;16.65;;;14.95;;
47309;SDS011;33046;52.270;6.832;2022-09-30T10:02:29;16.25;;;14.57;;
47309;SDS011;33046;52.270;6.832;2022-09-30T10:04:37;16.67;;;14.68;;
47309;SDS011;33046;52.270;6.832;2022-09-30T10:06:54;17.65;;;14.90;;
47309;SDS011;33046;52.270;6.832;2022-09-30T10:09:01;18.25;;;16.27;;
47309;SDS011;33046;52.270;6.832;2022-09-30T10:11:16;16.83;;;15.00;;
47309;SDS011;33046;52.270;6.832;2022-09-30T10:13:26;16.20;;;14.60;;
47309;SDS011;33046;52.270;6.832;2022-09-30T10:15:40;16.92;;;15.23;;
47309;SDS011;33046;52.270;6.832;2022-09-30T10:17:51;16.25;;;14.60;;
47309;SDS011;33046;52.270;6.832;2022-09-30T10:20:02;17.58;;;14.73;;
47309;SDS011;33046;52.270;6.832;2022-09-30T10:22:18;16.00;;;14.43;;
47309;SDS011;33046;52.270;6.832;2022-09-30T10:24:30;15.20;;;13.70;;
47309;SDS011;33046;52.270;6.832;2022-09-30T10:26:42;16.95;;;15.25;;
47309;SDS011;33046;52.270;6.832;2022-09-30T10:28:50;17.55;;;15.75;;
47309;SDS011;33046;52.270;6.832;2022-09-30T10:31:01;17.50;;;14.80;;
47309;SDS011;33046;52.270;6.832;2022-09-30T10:33:11;17.40;;;15.70;;
47309;SDS011;33046;52.270;6.832;2022-09-30T10:35:20;16.50;;;14.75;;
47309;SDS011;33046;52.270;6.832;2022-09-30T10:37:29;17.63;;;15.98;;
47309;SDS011;33046;52.270;6.832;2022-09-30T10:39:36;16.13;;;14.43;;
47309;SDS011;33046;52.270;6.832;2022-09-30T10:41:45;15.65;;;14.25;;
47309;SDS011;33046;52.270;6.832;2022-09-30T10:43:53;16.23;;;14.73;;
47309;SDS011;33046;52.270;6.832;2022-09-30T10:46:03;17.48;;;15.65;;
47309;SDS011;33046;52.270;6.832;2022-09-30T10:48:32;17.25;;;15.75;;
47309;SDS011;33046;52.270;6.832;2022-09-30T10:50:41;17.73;;;16.00;;
47309;SDS011;33046;52.270;6.832;2022-09-30T10:52:56;16.77;;;15.13;;
47309;SDS011;33046;52.270;6.832;2022-09-30T10:55:05;15.48;;;13.88;;
47309;SDS011;33046;52.270;6.832;2022-09-30T10:57:18;18.80;;;16.50;;
47309;SDS011;33046;52.270;6.832;2022-09-30T10:59:30;16.80;;;15.30;;
47309;SDS011;33046;52.270;6.832;2022-09-30T11:03:58;14.48;;;13.05;;
47309;SDS011;33046;52.270;6.832;2022-09-30T11:06:09;15.00;;;13.63;;
47309;SDS011;33046;52.270;6.832;2022-09-30T11:08:19;14.85;;;13.38;;
47309;SDS011;33046;52.270;6.832;2022-09-30T11:10:31;15.13;;;13.70;;
47309;SDS011;33046;52.270;6.832;2022-09-30T11:12:44;14.45;;;12.32;;
47309;SDS011;33046;52.270;6.832;2022-09-30T11:14:57;13.35;;;12.05;;
47309;SDS011;33046;52.270;6.832;2022-09-30T11:17:17;13.35;;;12.05;;
47309;SDS011;33046;52.270;6.832;2022-09-30T11:19:35;12.68;;;11.50;;
47309;SDS011;33046;52.270;6.832;2022-09-30T11:21:50;13.15;;;11.50;;
47309;SDS011;33046;52.270;6.832;2022-09-30T11:24:01;12.27;;;10.57;;
47309;SDS011;33046;52.270;6.832;2022-09-30T11:26:19;11.18;;;10.25;;
47309;SDS011;33046;52.270;6.832;2022-09-30T11:28:46;11.23;;;10.18;;
47309;SDS011;33046;52.270;6.832;2022-09-30T11:31:09;16.52;;;11.70;;
47309;SDS011;33046;52.270;6.832;2022-09-30T11:33:29;11.65;;;10.55;;
47309;SDS011;33046;52.270;6.832;2022-09-30T11:35:50;13.40;;;12.18;;
47309;SDS011;33046;52.270;6.832;2022-09-30T11:38:06;10.82;;;9.82;;
47309;SDS011;33046;52.270;6.832;2022-09-30T11:40:24;11.68;;;10.25;;
47309;SDS011;33046;52.270;6.832;2022-09-30T11:42:37;10.27;;;9.45;;
47309;SDS011;33046;52.270;6.832;2022-09-30T11:44:51;10.65;;;9.63;;
47309;SDS011;33046;52.270;6.832;2022-09-30T11:47:19;9.75;;;8.75;;
47309;SDS011;33046;52.270;6.832;2022-09-30T11:49:49;8.95;;;8.02;;
47309;SDS011;33046;52.270;6.832;2022-09-30T11:52:14;10.10;;;9.20;;
47309;SDS011;33046;52.270;6.832;2022-09-30T11:54:29;10.95;;;9.82;;
47309;SDS011;33046;52.270;6.832;2022-09-30T11:56:47;11.20;;;10.18;;
47309;SDS011;33046;52.270;6.832;2022-09-30T11:59:00;11.07;;;10.13;;
47309;SDS011;33046;52.270;6.832;2022-09-30T12:01:12;10.63;;;9.65;;
47309;SDS011;33046;52.270;6.832;2022-09-30T12:03:24;12.10;;;10.90;;
47309;SDS011;33046;52.270;6.832;2022-09-30T12:05:38;10.82;;;9.82;;
47309;SDS011;33046;52.270;6.832;2022-09-30T12:07:48;10.48;;;9.57;;
47309;SDS011;33046;52.270;6.832;2022-09-30T12:09:59;12.35;;;11.15;;
47309;SDS011;33046;52.270;6.832;2022-09-30T12:12:11;10.57;;;9.45;;
47309;SDS011;33046;52.270;6.832;2022-09-30T12:14:22;9.35;;;8.65;;
47309;SDS011;33046;52.270;6.832;2022-09-30T12:16:32;8.63;;;7.93;;
47309;SDS011;33046;52.270;6.832;2022-09-30T12:18:40;9.48;;;8.65;;
47309;SDS011;33046;52.270;6.832;2022-09-30T12:20:53;10.13;;;9.07;;
47309;SDS011;33046;52.270;6.832;2022-09-30T12:23:04;9.90;;;9.07;;
47309;SDS011;33046;52.270;6.832;2022-09-30T12:25:20;13.45;;;9.73;;
47309;SDS011;33046;52.270;6.832;2022-09-30T12:27:31;9.13;;;8.32;;
47309;SDS011;33046;52.270;6.832;2022-09-30T12:29:42;10.30;;;8.98;;
47309;SDS011;33046;52.270;6.832;2022-09-30T12:32:00;8.65;;;7.95;;
47309;SDS011;33046;52.270;6.832;2022-09-30T12:34:24;6.85;;;6.28;;
47309;SDS011;33046;52.270;6.832;2022-09-30T12:36:53;9.40;;;7.82;;
47309;SDS011;33046;52.270;6.832;2022-09-30T12:39:39;9.98;;;9.07;;
47309;SDS011;33046;52.270;6.832;2022-09-30T12:44:49;7.53;;;6.82;;
47309;SDS011;33046;52.270;6.832;2022-09-30T12:47:23;10.57;;;9.68;;
47309;SDS011;33046;52.270;6.832;2022-09-30T12:49:38;11.65;;;10.43;;
47309;SDS011;33046;52.270;6.832;2022-09-30T12:51:48;12.93;;;11.75;;
47309;SDS011;33046;52.270;6.832;2022-09-30T12:53:59;9.52;;;8.52;;
47309;SDS011;33046;52.270;6.832;2022-09-30T12:56:09;11.23;;;10.32;;
47309;SDS011;33046;52.270;6.832;2022-09-30T12:58:20;8.05;;;7.35;;
47309;SDS011;33046;52.270;6.832;2022-09-30T13:00:32;12.10;;;10.85;;
47309;SDS011;33046;52.270;6.832;2022-09-30T13:02:40;10.20;;;9.25;;
47309;SDS011;33046;52.270;6.832;2022-09-30T13:04:49;11.55;;;10.40;;
47309;SDS011;33046;52.270;6.832;2022-09-30T13:07:07;10.57;;;9.68;;
47309;SDS011;33046;52.270;6.832;2022-09-30T13:09:29;15.02;;;13.82;;